KCLS/CLS METAR and TAF weather

Enter ICAO airport designator
Station Type Date Time Source
KCLS METAR 2022/06/27 09:15 UTC NOAA

KCLS 270915Z AUTO 00000KT 10SM CLR 15/15 A2996 RMK AO2


Station Type Date Time Source
KCLS Decoded METAR 2022/06/27 09:15 UTC NOAA

Station name not available
Jun 27, 2022 - 05:15 AM EDT / 2022.06.27 0915 UTC
Wind: Calm:0
Visibility: 10 mile(s):0
Sky conditions: clear
Temperature: 59 F (15 C)
Dew Point: 59 F (15 C)
Relative Humidity: 100%
Pressure (altimeter): 29.96 in. Hg (1014 hPa)
ob: KCLS 270915Z AUTO 00000KT 10SM CLR 15/15 A2996 RMK AO2
cycle: 9

Station Type Date Time Source
KCLS TAF UTC NOAA

Error!

Example: see airport list